createdAt,value
2022-10-22T00:00:09.610Z,73.49
2022-10-22T00:02:56.502Z,73.60
2022-10-22T00:05:23.492Z,73.52
2022-10-22T00:07:50.344Z,73.51
2022-10-22T00:10:18.505Z,73.52
2022-10-22T00:12:45.349Z,73.46
2022-10-22T00:15:12.452Z,73.43
2022-10-22T00:17:39.592Z,73.50
2022-10-22T00:20:07.427Z,73.54
2022-10-22T00:22:34.358Z,73.55
2022-10-22T00:25:01.218Z,73.73
2022-10-22T00:27:28.134Z,73.60
2022-10-22T00:29:54.989Z,73.65
2022-10-22T00:32:21.946Z,73.68
2022-10-22T00:34:48.804Z,73.66
2022-10-22T00:37:15.689Z,73.54
2022-10-22T00:39:42.642Z,73.64
2022-10-22T00:42:22.685Z,73.60
2022-10-22T00:45:16.227Z,73.64
2022-10-22T00:47:55.081Z,73.76
2022-10-22T00:50:41.497Z,73.85
2022-10-22T00:53:15.537Z,73.85
2022-10-22T00:55:45.227Z,73.95
2022-10-22T00:58:13.086Z,74.01
2022-10-22T01:00:40.322Z,74.00
2022-10-22T01:03:07.826Z,74.01
2022-10-22T01:05:46.035Z,73.96
2022-10-22T01:08:36.073Z,73.95
2022-10-22T01:11:07.717Z,73.88
2022-10-22T01:13:34.660Z,73.91
2022-10-22T01:16:34.883Z,73.84
2022-10-22T01:19:38.395Z,73.91
2022-10-22T01:22:15.588Z,73.92
2022-10-22T01:25:17.452Z,73.97
2022-10-22T01:28:09.870Z,74.11
2022-10-22T01:30:39.341Z,74.12
2022-10-22T01:33:10.323Z,74.26
2022-10-22T01:35:41.529Z,74.28
2022-10-22T01:38:13.694Z,74.42
2022-10-22T01:40:42.302Z,74.45
2022-10-22T01:43:10.978Z,74.51
2022-10-22T01:45:51.392Z,74.43
2022-10-22T01:48:21.162Z,74.48
2022-10-22T01:50:55.700Z,74.55
2022-10-22T01:56:35.942Z,74.35
2022-10-22T01:59:21.488Z,74.54
2022-10-22T02:01:59.224Z,74.55
2022-10-22T02:04:33.226Z,74.61
2022-10-22T02:07:05.048Z,74.60
2022-10-22T02:09:33.533Z,74.69
2022-10-22T02:12:03.262Z,74.59
2022-10-22T02:14:30.977Z,74.63
2022-10-22T02:16:59.805Z,74.68
2022-10-22T02:19:29.269Z,74.81
2022-10-22T02:21:56.385Z,74.75
2022-10-22T02:24:23.858Z,74.71
2022-10-22T02:27:02.892Z,74.72
2022-10-22T02:29:41.035Z,74.89
2022-10-22T02:32:10.998Z,74.90
2022-10-22T02:34:38.546Z,74.79
2022-10-22T02:37:06.521Z,74.89
2022-10-22T02:39:35.899Z,75.00
2022-10-22T02:42:03.128Z,74.94
2022-10-22T02:44:30.034Z,75.03
2022-10-22T02:46:58.224Z,75.08
2022-10-22T02:49:25.182Z,75.16
2022-10-22T02:51:52.151Z,75.14
2022-10-22T02:54:18.987Z,75.28
2022-10-22T02:56:45.832Z,75.25
2022-10-22T02:59:12.748Z,75.35
2022-10-22T03:01:39.928Z,75.29
2022-10-22T03:04:06.954Z,75.29
2022-10-22T03:06:33.990Z,75.31
2022-10-22T03:09:01.211Z,75.52
2022-10-22T03:11:28.119Z,75.52
2022-10-22T03:13:55.087Z,75.66
2022-10-22T03:16:21.893Z,75.60
2022-10-22T03:18:48.781Z,75.67
2022-10-22T03:21:31.214Z,75.65
2022-10-22T03:24:01.735Z,75.73
2022-10-22T03:26:28.894Z,75.95
2022-10-22T03:28:55.925Z,76.00
2022-10-22T03:31:22.842Z,75.95
2022-10-22T03:33:49.747Z,76.06
2022-10-22T03:36:16.897Z,75.96
2022-10-22T03:38:43.998Z,76.08
2022-10-22T03:41:11.118Z,76.09
2022-10-22T03:43:40.207Z,76.13
2022-10-22T03:46:07.455Z,76.11
2022-10-22T03:48:34.312Z,76.01
2022-10-22T03:51:01.882Z,75.83
2022-10-22T03:53:28.858Z,75.86
2022-10-22T03:55:55.704Z,75.76
2022-10-22T03:58:22.584Z,75.78
2022-10-22T04:00:49.685Z,75.79
2022-10-22T04:03:16.657Z,75.87
2022-10-22T04:05:43.886Z,75.76
2022-10-22T04:08:10.807Z,75.72
2022-10-22T04:10:37.624Z,75.65
2022-10-22T04:13:04.478Z,75.73
2022-10-22T04:15:32.072Z,75.55
2022-10-22T04:17:58.993Z,75.55
2022-10-22T04:20:25.985Z,75.61
2022-10-22T04:22:52.859Z,75.49
2022-10-22T04:25:19.722Z,75.51
2022-10-22T04:27:46.575Z,75.48
2022-10-22T04:30:13.645Z,75.56
2022-10-22T04:32:40.533Z,75.50
2022-10-22T04:35:07.737Z,75.55
2022-10-22T04:37:34.833Z,75.55
2022-10-22T04:40:01.734Z,75.71
2022-10-22T04:42:28.710Z,75.68
2022-10-22T04:44:55.613Z,75.62
2022-10-22T04:47:22.833Z,75.80
2022-10-22T04:49:49.710Z,75.65
2022-10-22T04:52:16.588Z,75.52
2022-10-22T04:54:43.437Z,75.61
2022-10-22T04:57:10.324Z,75.56
2022-10-22T04:59:37.283Z,75.74
2022-10-22T05:02:04.253Z,75.71
2022-10-22T05:04:31.576Z,75.78
2022-10-22T05:06:58.438Z,75.77
2022-10-22T05:09:25.362Z,75.82
2022-10-22T05:11:52.953Z,75.79
2022-10-22T05:14:23.218Z,75.81
2022-10-22T05:16:51.241Z,75.74
2022-10-22T05:19:26.942Z,75.82
2022-10-22T05:21:57.012Z,75.81
2022-10-22T05:24:24.598Z,75.91
2022-10-22T05:26:53.191Z,75.99
2022-10-22T05:29:20.739Z,76.00
2022-10-22T05:31:47.893Z,76.16
2022-10-22T05:34:15.104Z,76.02
2022-10-22T05:36:42.361Z,75.91
2022-10-22T05:39:09.527Z,76.08
2022-10-22T05:41:36.420Z,76.09
2022-10-22T05:44:04.110Z,76.21
2022-10-22T05:46:34.641Z,76.10
2022-10-22T05:49:03.789Z,76.21
2022-10-22T05:51:33.266Z,76.06
2022-10-22T05:54:02.014Z,76.05
2022-10-22T05:56:31.509Z,76.12
2022-10-22T05:58:58.881Z,76.07
2022-10-22T06:01:29.064Z,76.04
2022-10-22T06:03:58.220Z,76.25
2022-10-22T06:06:29.923Z,76.36
2022-10-22T06:09:00.977Z,76.27
2022-10-22T06:11:31.083Z,76.28
2022-10-22T06:14:01.356Z,76.25
2022-10-22T06:16:29.730Z,76.18
2022-10-22T06:19:00.559Z,76.13
2022-10-22T06:21:28.258Z,76.31
2022-10-22T06:23:56.791Z,76.40
2022-10-22T06:26:26.373Z,76.63
2022-10-22T06:28:56.578Z,76.67
2022-10-22T06:31:28.152Z,76.53
2022-10-22T06:34:01.200Z,76.79
2022-10-22T06:36:28.483Z,76.92
2022-10-22T06:38:56.067Z,77.01
2022-10-22T06:41:27.065Z,77.06
2022-10-22T06:43:56.955Z,76.91
2022-10-22T06:46:24.658Z,77.13
2022-10-22T06:48:56.556Z,77.15
2022-10-22T06:51:24.143Z,77.11
2022-10-22T06:53:51.132Z,77.14
2022-10-22T06:56:20.538Z,77.22
2022-10-22T06:58:48.532Z,77.13
2022-10-22T07:01:17.094Z,77.07
2022-10-22T07:03:44.036Z,77.18
2022-10-22T07:06:13.009Z,77.13
2022-10-22T07:08:41.259Z,77.11
2022-10-22T07:11:13.139Z,77.14
2022-10-22T07:13:40.359Z,77.02
2022-10-22T07:16:08.073Z,77.06
2022-10-22T07:18:35.875Z,76.88
2022-10-22T07:21:04.062Z,77.07
2022-10-22T07:23:31.951Z,77.08
2022-10-22T07:25:58.971Z,77.07
2022-10-22T07:28:27.417Z,77.02
2022-10-22T07:30:54.278Z,77.17
2022-10-22T07:33:21.355Z,77.18
2022-10-22T07:35:48.249Z,77.15
2022-10-22T07:38:15.168Z,77.12
2022-10-22T07:40:42.214Z,77.08
2022-10-22T07:43:09.207Z,77.37
2022-10-22T07:45:36.042Z,77.30
2022-10-22T07:48:05.938Z,77.26
2022-10-22T07:50:33.135Z,77.48
2022-10-22T07:53:00.148Z,77.65
2022-10-22T07:55:29.565Z,77.87
2022-10-22T07:57:56.574Z,77.85
2022-10-22T08:00:25.299Z,77.99
2022-10-22T08:02:52.758Z,77.86
2022-10-22T08:05:19.752Z,77.92
2022-10-22T08:07:46.767Z,77.78
2022-10-22T08:10:13.747Z,77.80
2022-10-22T08:12:41.598Z,78.03
2022-10-22T08:15:09.614Z,77.79
2022-10-22T08:17:38.778Z,77.90
2022-10-22T08:20:06.584Z,77.78
2022-10-22T08:22:33.614Z,77.88
2022-10-22T08:25:00.556Z,77.94
2022-10-22T08:27:27.484Z,77.92
2022-10-22T08:29:54.685Z,78.10
2022-10-22T08:32:22.144Z,78.11
2022-10-22T08:34:49.395Z,78.20
2022-10-22T08:37:17.303Z,77.86
2022-10-22T08:39:44.739Z,77.93
2022-10-22T08:42:33.814Z,78.04
2022-10-22T08:45:17.510Z,78.24
2022-10-22T08:48:08.741Z,78.40
2022-10-22T08:50:40.014Z,78.26
2022-10-22T08:53:14.262Z,78.37
2022-10-22T08:55:42.175Z,78.42
2022-10-22T08:58:35.503Z,78.59
2022-10-22T09:01:10.086Z,78.67
2022-10-22T09:03:43.462Z,78.64
2022-10-22T09:06:23.694Z,78.57
2022-10-22T09:08:52.478Z,79.03
2022-10-22T09:11:32.010Z,78.82
2022-10-22T09:14:00.265Z,78.70
2022-10-22T09:16:50.196Z,78.90
2022-10-22T09:19:16.864Z,78.85
2022-10-22T09:22:11.625Z,79.06
2022-10-22T09:24:52.280Z,78.99
2022-10-22T09:27:23.254Z,79.06
2022-10-22T09:29:52.159Z,78.86
2022-10-22T09:32:19.549Z,78.94
2022-10-22T09:34:50.000Z,78.84
2022-10-22T09:37:20.623Z,79.17
2022-10-22T09:39:51.944Z,79.40
2022-10-22T09:42:20.671Z,79.42
2022-10-22T09:44:59.575Z,79.66
2022-10-22T09:48:00.989Z,79.53
2022-10-22T09:50:44.650Z,79.48
2022-10-22T09:53:41.193Z,79.59
2022-10-22T09:56:35.276Z,79.64
2022-10-22T09:59:03.062Z,79.52
2022-10-22T10:01:38.082Z,79.48
2022-10-22T10:04:10.183Z,79.48
2022-10-22T10:06:39.966Z,79.49
2022-10-22T10:09:17.930Z,79.65
2022-10-22T10:12:14.781Z,79.76
2022-10-22T10:15:02.943Z,79.65
2022-10-22T10:17:43.265Z,79.70
2022-10-22T10:20:16.719Z,79.75
2022-10-22T10:23:07.810Z,79.68
2022-10-22T10:26:02.457Z,79.70
2022-10-22T10:28:39.106Z,79.57
2022-10-22T10:31:33.472Z,79.79
2022-10-22T10:34:09.526Z,79.80
2022-10-22T10:36:58.350Z,79.82
2022-10-22T10:39:42.845Z,79.75
2022-10-22T10:50:10.852Z,79.84
2022-10-22T10:52:53.623Z,79.68
2022-10-22T10:55:37.204Z,79.81
2022-10-22T10:58:25.488Z,79.72
2022-10-22T11:00:58.396Z,79.60
2022-10-22T11:03:41.316Z,79.62
2022-10-22T11:06:20.506Z,79.78
2022-10-22T11:09:01.427Z,79.66
2022-10-22T11:11:41.556Z,79.72
2022-10-22T11:14:27.898Z,79.64
2022-10-22T11:17:08.027Z,79.84
2022-10-22T11:19:51.515Z,79.66
2022-10-22T11:22:28.206Z,79.77
2022-10-22T11:25:13.927Z,79.81
2022-10-22T11:27:47.505Z,79.85
2022-10-22T11:30:20.450Z,79.55
2022-10-22T11:32:54.494Z,79.44
2022-10-22T11:35:28.193Z,79.42
2022-10-22T11:37:57.216Z,79.43
2022-10-22T11:40:37.123Z,79.46
2022-10-22T11:43:09.725Z,79.54
2022-10-22T11:45:40.038Z,79.44
2022-10-22T11:48:10.113Z,79.58
2022-10-22T11:50:50.247Z,79.53
2022-10-22T11:53:33.387Z,79.42
2022-10-22T11:56:06.631Z,79.63
2022-10-22T11:58:43.406Z,79.67
2022-10-22T12:01:10.589Z,79.34
2022-10-22T12:03:42.380Z,79.41
2022-10-22T12:06:12.778Z,79.52
2022-10-22T12:09:03.092Z,79.49
2022-10-22T12:11:50.305Z,79.48
2022-10-22T12:14:29.298Z,79.37
2022-10-22T12:17:13.490Z,79.44
2022-10-22T12:19:41.858Z,79.50
2022-10-22T12:22:20.618Z,79.62
2022-10-22T12:24:55.793Z,79.48
2022-10-22T12:27:40.992Z,79.57
2022-10-22T12:30:24.991Z,79.54
2022-10-22T12:32:54.237Z,79.75
2022-10-22T12:35:25.783Z,79.87
2022-10-22T12:37:56.548Z,79.85
2022-10-22T12:40:47.499Z,79.74
2022-10-22T12:43:41.520Z,79.69
2022-10-22T12:46:13.354Z,79.88
2022-10-22T12:48:43.543Z,80.05
2022-10-22T12:51:19.914Z,80.07
2022-10-22T12:53:55.293Z,79.95
2022-10-22T12:56:32.336Z,79.79
2022-10-22T12:59:07.565Z,79.84
2022-10-22T13:01:41.487Z,79.81
2022-10-22T13:04:28.005Z,79.73
2022-10-22T13:07:15.941Z,79.82
2022-10-22T13:09:45.556Z,79.81
2022-10-22T13:12:17.170Z,79.78
2022-10-22T13:14:46.215Z,79.72
2022-10-22T13:17:26.167Z,79.56
2022-10-22T13:19:53.851Z,79.63
2022-10-22T13:22:25.124Z,79.70
2022-10-22T13:24:52.439Z,79.70
2022-10-22T13:27:23.283Z,79.51
2022-10-22T13:29:50.556Z,79.62
2022-10-22T13:32:48.768Z,79.62
2022-10-22T13:35:20.488Z,79.52
2022-10-22T13:37:47.551Z,79.69
2022-10-22T13:40:16.375Z,79.56
2022-10-22T13:42:43.437Z,79.69
2022-10-22T13:45:12.641Z,79.87
2022-10-22T13:47:40.277Z,79.86
2022-10-22T13:50:14.574Z,79.86
2022-10-22T13:52:44.612Z,79.89
2022-10-22T13:55:26.709Z,79.84
2022-10-22T13:57:57.774Z,79.76
2022-10-22T14:00:27.126Z,79.61
2022-10-22T14:02:58.953Z,79.81
2022-10-22T14:05:25.986Z,79.67
2022-10-22T14:07:53.240Z,79.72
2022-10-22T14:10:23.164Z,79.77
2022-10-22T14:12:53.572Z,79.71
2022-10-22T14:15:27.345Z,79.72
2022-10-22T14:17:59.354Z,79.77
2022-10-22T14:20:30.160Z,79.78
2022-10-22T14:23:02.869Z,79.79
2022-10-22T14:25:31.037Z,79.89
2022-10-22T14:27:57.969Z,80.01
2022-10-22T14:30:25.810Z,79.96
2022-10-22T14:32:52.956Z,79.93
2022-10-22T14:35:22.140Z,79.92
2022-10-22T14:37:49.076Z,80.09
2022-10-22T14:40:18.958Z,80.16
2022-10-22T14:42:47.625Z,80.00
2022-10-22T14:45:25.391Z,80.10
2022-10-22T14:47:56.838Z,80.13
2022-10-22T14:50:24.588Z,80.12
2022-10-22T14:52:52.061Z,80.14
2022-10-22T14:55:19.703Z,79.98
2022-10-22T14:57:46.666Z,80.02
2022-10-22T15:00:17.017Z,80.18
2022-10-22T15:02:44.645Z,80.04
2022-10-22T15:05:12.104Z,79.93
2022-10-22T15:07:39.500Z,80.10
2022-10-22T15:10:08.446Z,80.08
2022-10-22T15:12:36.441Z,80.24
2022-10-22T15:15:04.052Z,80.08
2022-10-22T15:17:30.998Z,80.18
2022-10-22T15:20:00.606Z,80.12
2022-10-22T15:22:28.144Z,80.19
2022-10-22T15:24:55.056Z,80.18
2022-10-22T15:27:22.108Z,80.32
2022-10-22T15:29:49.030Z,80.30
2022-10-22T15:32:15.917Z,80.19
2022-10-22T15:34:42.765Z,80.25
2022-10-22T15:37:13.006Z,80.36
2022-10-22T15:39:40.980Z,80.40
2022-10-22T15:42:09.149Z,80.42
2022-10-22T15:44:36.442Z,80.41
2022-10-22T15:47:04.568Z,80.20
2022-10-22T15:49:31.872Z,80.30
2022-10-22T15:51:58.911Z,80.16
2022-10-22T15:54:28.736Z,80.21
2022-10-22T15:56:57.040Z,80.12
2022-10-22T15:59:24.740Z,79.96
2022-10-22T16:01:51.711Z,80.01
2022-10-22T16:04:19.149Z,79.97
2022-10-22T16:06:48.980Z,79.86
2022-10-22T16:09:19.781Z,79.66
2022-10-22T16:11:47.056Z,79.69
2022-10-22T16:14:16.281Z,79.59
2022-10-22T16:16:45.993Z,79.57
2022-10-22T16:19:14.718Z,79.63
2022-10-22T16:21:41.715Z,79.45
2022-10-22T16:24:09.217Z,79.29
2022-10-22T16:26:36.542Z,79.32
2022-10-22T16:29:04.824Z,79.32
2022-10-22T16:31:31.778Z,79.24
2022-10-22T16:33:59.250Z,79.11
2022-10-22T16:36:26.187Z,79.06
2022-10-22T16:38:53.271Z,78.91
2022-10-22T16:41:22.923Z,78.85
2022-10-22T16:43:51.275Z,78.89
2022-10-22T16:46:20.319Z,79.12
2022-10-22T16:48:52.340Z,78.95
2022-10-22T16:51:25.280Z,78.89
2022-10-22T16:54:00.179Z,78.81
2022-10-22T16:56:39.829Z,78.73
2022-10-22T17:03:15.074Z,78.54
2022-10-22T17:05:42.806Z,78.58
2022-10-22T17:08:09.717Z,78.33
2022-10-22T17:10:37.361Z,78.33
2022-10-22T17:13:05.146Z,78.38
2022-10-22T17:15:32.341Z,78.15
2022-10-22T17:18:03.559Z,78.22
2022-10-22T17:20:30.472Z,78.24
2022-10-22T17:22:57.409Z,78.19
2022-10-22T17:25:35.181Z,78.17
2022-10-22T17:28:02.229Z,78.11
2022-10-22T17:30:29.914Z,78.02
2022-10-22T17:32:56.884Z,77.82
2022-10-22T17:37:54.312Z,77.95
2022-10-22T17:40:23.517Z,78.12
2022-10-22T17:42:52.964Z,78.00
2022-10-22T17:45:23.537Z,78.09
2022-10-22T17:48:14.522Z,78.11
2022-10-22T17:50:48.279Z,78.15
2022-10-22T17:53:24.480Z,78.19
2022-10-22T17:56:00.171Z,78.36
2022-10-22T17:58:30.400Z,78.34
2022-10-22T18:00:58.498Z,78.46
2022-10-22T18:03:27.374Z,78.55
2022-10-22T18:05:54.769Z,78.49
2022-10-22T18:08:23.598Z,78.58
2022-10-22T18:10:50.533Z,78.67
2022-10-22T18:13:18.970Z,78.81
2022-10-22T18:15:53.580Z,78.90
2022-10-22T18:18:20.424Z,78.94
2022-10-22T18:20:51.726Z,78.85
2022-10-22T18:23:19.589Z,78.88
2022-10-22T18:25:48.749Z,79.03
2022-10-22T18:28:17.492Z,78.93
2022-10-22T18:30:46.850Z,79.03
2022-10-22T18:33:15.798Z,79.15
2022-10-22T18:35:43.034Z,79.23
2022-10-22T18:38:10.292Z,79.10
2022-10-22T18:40:45.147Z,79.07
2022-10-22T18:43:12.583Z,79.13
2022-10-22T18:45:47.814Z,78.86
2022-10-22T18:48:20.249Z,78.83
2022-10-22T18:50:47.219Z,78.95
2022-10-22T18:53:15.848Z,78.94
2022-10-22T18:55:46.432Z,79.05
2022-10-22T18:58:13.329Z,79.17
2022-10-22T19:00:40.475Z,78.97
2022-10-22T19:03:10.730Z,78.97
2022-10-22T19:05:48.071Z,78.96
2022-10-22T19:08:16.673Z,79.07
2022-10-22T19:10:45.111Z,79.06
2022-10-22T19:13:17.668Z,78.95
2022-10-22T19:15:48.941Z,79.20
2022-10-22T19:18:19.335Z,79.02
2022-10-22T19:20:49.127Z,79.09
2022-10-22T19:23:19.945Z,79.09
2022-10-22T19:25:47.874Z,78.97
2022-10-22T19:28:15.115Z,79.05
2022-10-22T19:30:44.530Z,79.09
2022-10-22T19:33:12.452Z,78.89
2022-10-22T19:35:43.129Z,78.99
2022-10-22T19:38:12.623Z,79.06
2022-10-22T19:40:46.287Z,79.05
2022-10-22T19:46:39.764Z,79.10
2022-10-22T19:49:19.064Z,79.27
2022-10-22T19:52:07.167Z,79.15
2022-10-22T19:54:36.875Z,78.98
2022-10-22T19:59:36.744Z,79.10
2022-10-22T20:02:04.825Z,78.98
2022-10-22T20:04:31.976Z,79.17
2022-10-22T20:06:58.956Z,79.12
2022-10-22T20:09:25.974Z,79.32
2022-10-22T20:11:53.149Z,79.12
2022-10-22T20:14:20.203Z,79.19
2022-10-22T20:16:47.230Z,79.20
2022-10-22T20:19:15.597Z,79.05
2022-10-22T20:21:43.889Z,79.20
2022-10-22T20:24:11.747Z,79.20
2022-10-22T20:26:38.699Z,79.28
2022-10-22T20:29:05.744Z,79.11
2022-10-22T20:31:35.487Z,79.07
2022-10-22T20:34:02.366Z,79.13
2022-10-22T20:36:32.015Z,79.14
2022-10-22T20:39:15.748Z,79.19
2022-10-22T20:41:46.450Z,79.22
2022-10-22T20:44:17.730Z,79.15
2022-10-22T20:46:45.436Z,79.19
2022-10-22T20:49:17.471Z,79.07
2022-10-22T20:51:44.384Z,79.10
2022-10-22T20:54:11.455Z,79.06
2022-10-22T20:56:39.775Z,78.95
2022-10-22T20:59:10.321Z,78.95
2022-10-22T21:01:51.603Z,79.05
2022-10-22T21:04:21.881Z,79.05
2022-10-22T21:06:49.957Z,79.13
2022-10-22T21:09:16.950Z,79.10
2022-10-22T21:11:47.166Z,79.29
2022-10-22T21:14:19.578Z,79.21
2022-10-22T21:16:50.845Z,79.24
2022-10-22T21:20:47.504Z,79.21
2022-10-22T21:33:20.378Z,79.36
2022-10-22T21:39:13.601Z,79.33
2022-10-22T21:41:55.095Z,79.46
2022-10-22T21:47:13.744Z,79.42
2022-10-22T21:49:41.421Z,79.39
2022-10-22T21:52:11.328Z,79.53
2022-10-22T21:54:39.411Z,79.42
2022-10-22T21:57:06.899Z,79.52
2022-10-22T22:06:20.417Z,79.54
2022-10-22T22:08:50.737Z,79.47
2022-10-22T22:11:23.688Z,79.52
2022-10-22T22:13:51.894Z,79.58
2022-10-22T22:16:28.415Z,79.41
2022-10-22T22:19:08.778Z,79.47
2022-10-22T22:21:40.923Z,79.44
2022-10-22T22:24:12.710Z,79.34
2022-10-22T22:26:44.633Z,79.62
2022-10-22T22:29:19.558Z,79.60
2022-10-22T22:31:52.919Z,79.60
2022-10-22T22:34:23.508Z,79.53
2022-10-22T22:36:51.080Z,79.56
2022-10-22T22:39:23.146Z,79.61
2022-10-22T22:41:50.600Z,79.63
2022-10-22T22:44:17.653Z,79.62
2022-10-22T22:46:45.025Z,79.56
2022-10-22T22:49:13.249Z,79.64
2022-10-22T22:51:40.294Z,79.54
2022-10-22T22:54:10.512Z,79.43
2022-10-22T22:56:40.491Z,79.54
2022-10-22T22:59:11.519Z,79.48
2022-10-22T23:01:41.206Z,79.49
2022-10-22T23:04:12.225Z,79.33
2022-10-22T23:06:41.854Z,79.47
2022-10-22T23:09:14.348Z,79.41
2022-10-22T23:11:46.000Z,79.36
2022-10-22T23:14:18.939Z,79.27
2022-10-22T23:16:51.963Z,79.28
2022-10-22T23:19:22.499Z,79.37
2022-10-22T23:21:54.352Z,79.23
2022-10-22T23:24:28.988Z,79.28
2022-10-22T23:27:01.876Z,79.20
2022-10-22T23:29:35.259Z,79.06
2022-10-22T23:32:11.429Z,78.94
2022-10-22T23:34:41.063Z,78.93
2022-10-22T23:37:11.964Z,78.83
2022-10-22T23:39:43.512Z,78.92
2022-10-22T23:42:10.432Z,78.89
2022-10-22T23:44:42.859Z,78.81
2022-10-22T23:47:12.335Z,78.77
2022-10-22T23:49:41.765Z,78.73
2022-10-22T23:52:12.689Z,79.01
2022-10-22T23:54:45.781Z,78.97
2022-10-22T23:57:15.567Z,79.13
2022-10-22T23:59:44.991Z,79.16
